sensor_id;sensor_type;location;lat;lon;timestamp;pressure;altitude;pressure_sealevel;temperature;humidity
46430;BME280;32131;53.454;-6.180;2023-03-14T08:04:32;100496.69;;;0.85;100.00
46430;BME280;32131;53.454;-6.180;2023-03-14T08:07:00;100504.00;;;0.96;100.00
46430;BME280;32131;53.454;-6.180;2023-03-14T08:09:29;100502.13;;;1.09;100.00
46430;BME280;32131;53.454;-6.180;2023-03-14T08:11:57;100514.34;;;1.33;100.00
46430;BME280;32131;53.454;-6.180;2023-03-14T08:14:25;100515.44;;;1.56;100.00
46430;BME280;32131;53.454;-6.180;2023-03-14T08:16:55;100525.44;;;1.70;100.00
46430;BME280;32131;53.454;-6.180;2023-03-14T08:19:24;100525.94;;;1.81;100.00
46430;BME280;32131;53.454;-6.180;2023-03-14T08:21:53;100531.25;;;1.85;100.00
46430;BME280;32131;53.454;-6.180;2023-03-14T08:24:22;100538.66;;;1.81;100.00
46430;BME280;32131;53.454;-6.180;2023-03-14T08:26:50;100545.50;;;1.82;100.00
46430;BME280;32131;53.454;-6.180;2023-03-14T08:29:18;100538.09;;;1.86;100.00
46430;BME280;32131;53.454;-6.180;2023-03-14T08:31:47;100544.25;;;1.92;100.00
46430;BME280;32131;53.454;-6.180;2023-03-14T08:34:16;100543.03;;;2.01;100.00
46430;BME280;32131;53.454;-6.180;2023-03-14T08:36:45;100544.28;;;2.10;100.00
46430;BME280;32131;53.454;-6.180;2023-03-14T08:39:14;100538.34;;;2.29;100.00
46430;BME280;32131;53.454;-6.180;2023-03-14T08:41:44;100536.38;;;2.61;100.00
46430;BME280;32131;53.454;-6.180;2023-03-14T08:44:14;100552.50;;;2.79;100.00
46430;BME280;32131;53.454;-6.180;2023-03-14T08:46:46;100550.19;;;2.86;99.31
46430;BME280;32131;53.454;-6.180;2023-03-14T08:49:14;100542.53;;;2.86;98.70
46430;BME280;32131;53.454;-6.180;2023-03-14T08:51:43;100549.00;;;2.77;98.78
46430;BME280;32131;53.454;-6.180;2023-03-14T08:54:11;100547.00;;;2.52;98.51
46430;BME280;32131;53.454;-6.180;2023-03-14T08:56:41;100552.22;;;2.35;99.02
46430;BME280;32131;53.454;-6.180;2023-03-14T08:59:09;100556.31;;;2.32;99.12
46430;BME280;32131;53.454;-6.180;2023-03-14T09:01:38;100568.41;;;2.36;99.37
46430;BME280;32131;53.454;-6.180;2023-03-14T09:04:07;100581.28;;;2.39;98.83
46430;BME280;32131;53.454;-6.180;2023-03-14T09:06:36;100584.47;;;2.35;98.36
46430;BME280;32131;53.454;-6.180;2023-03-14T09:09:04;100585.13;;;2.31;98.34
46430;BME280;32131;53.454;-6.180;2023-03-14T09:11:33;100598.81;;;2.33;98.00
46430;BME280;32131;53.454;-6.180;2023-03-14T09:14:03;100598.53;;;2.27;97.15
46430;BME280;32131;53.454;-6.180;2023-03-14T09:16:32;100596.16;;;2.30;97.41
46430;BME280;32131;53.454;-6.180;2023-03-14T09:19:01;100587.97;;;2.37;96.68
46430;BME280;32131;53.454;-6.180;2023-03-14T09:21:29;100584.97;;;2.46;96.98
46430;BME280;32131;53.454;-6.180;2023-03-14T09:23:58;100583.59;;;2.53;96.67
46430;BME280;32131;53.454;-6.180;2023-03-14T09:26:26;100589.91;;;2.61;96.39
46430;BME280;32131;53.454;-6.180;2023-03-14T09:28:54;100588.72;;;2.72;96.40
46430;BME280;32131;53.454;-6.180;2023-03-14T09:31:27;100593.66;;;2.69;95.25
46430;BME280;32131;53.454;-6.180;2023-03-14T09:33:56;100602.38;;;2.74;94.74
46430;BME280;32131;53.454;-6.180;2023-03-14T09:36:24;100599.19;;;2.78;94.48
46430;BME280;32131;53.454;-6.180;2023-03-14T09:38:53;100602.00;;;2.85;94.22
46430;BME280;32131;53.454;-6.180;2023-03-14T09:41:24;100602.28;;;2.91;93.74
46430;BME280;32131;53.454;-6.180;2023-03-14T09:44:00;100612.69;;;2.95;93.33
46430;BME280;32131;53.454;-6.180;2023-03-14T09:46:35;100606.88;;;2.98;92.98
46430;BME280;32131;53.454;-6.180;2023-03-14T09:49:10;100616.66;;;3.08;92.84
46430;BME280;32131;53.454;-6.180;2023-03-14T09:51:40;100616.03;;;3.14;92.79
46430;BME280;32131;53.454;-6.180;2023-03-14T09:54:23;100622.41;;;3.24;93.13
46430;BME280;32131;53.454;-6.180;2023-03-14T09:56:52;100628.81;;;3.34;92.53
46430;BME280;32131;53.454;-6.180;2023-03-14T09:59:21;100628.19;;;3.39;91.98
46430;BME280;32131;53.454;-6.180;2023-03-14T10:01:52;100634.16;;;3.40;91.16
46430;BME280;32131;53.454;-6.180;2023-03-14T10:04:21;100633.41;;;3.42;90.70
46430;BME280;32131;53.454;-6.180;2023-03-14T10:06:51;100645.91;;;3.56;90.53
46430;BME280;32131;53.454;-6.180;2023-03-14T10:09:21;100644.75;;;3.69;90.98
46430;BME280;32131;53.454;-6.180;2023-03-14T10:11:55;100655.53;;;3.83;89.62
46430;BME280;32131;53.454;-6.180;2023-03-14T10:14:37;100652.78;;;3.99;89.47
46430;BME280;32131;53.454;-6.180;2023-03-14T10:17:09;100652.06;;;4.23;87.96
46430;BME280;32131;53.454;-6.180;2023-03-14T10:19:50;100663.34;;;4.51;88.29
46430;BME280;32131;53.454;-6.180;2023-03-14T10:22:23;100668.19;;;4.66;87.10
46430;BME280;32131;53.454;-6.180;2023-03-14T10:24:54;100684.94;;;4.80;86.14
46430;BME280;32131;53.454;-6.180;2023-03-14T10:27:28;100678.06;;;4.79;84.60
46430;BME280;32131;53.454;-6.180;2023-03-14T10:29:58;100687.31;;;4.76;83.93
46430;BME280;32131;53.454;-6.180;2023-03-14T10:32:31;100702.91;;;4.82;83.53
46430;BME280;32131;53.454;-6.180;2023-03-14T10:35:11;100696.22;;;4.85;82.58
46430;BME280;32131;53.454;-6.180;2023-03-14T10:37:51;100691.47;;;4.95;82.77
46430;BME280;32131;53.454;-6.180;2023-03-14T10:40:26;100687.25;;;5.19;83.07
46430;BME280;32131;53.454;-6.180;2023-03-14T10:42:57;100689.88;;;5.45;82.98
46430;BME280;32131;53.454;-6.180;2023-03-14T10:45:36;100693.59;;;5.54;80.74
46430;BME280;32131;53.454;-6.180;2023-03-14T10:48:31;100697.03;;;5.80;80.88
46430;BME280;32131;53.454;-6.180;2023-03-14T10:51:05;100701.44;;;6.08;78.70
46430;BME280;32131;53.454;-6.180;2023-03-14T10:53:40;100702.09;;;6.28;78.45
46430;BME280;32131;53.454;-6.180;2023-03-14T10:56:12;100701.03;;;6.49;77.87
46430;BME280;32131;53.454;-6.180;2023-03-14T10:58:42;100702.59;;;6.71;77.36
46430;BME280;32131;53.454;-6.180;2023-03-14T11:01:30;100701.38;;;6.89;77.48
46430;BME280;32131;53.454;-6.180;2023-03-14T11:04:14;100694.81;;;6.99;76.15
46430;BME280;32131;53.454;-6.180;2023-03-14T11:06:48;100713.06;;;7.08;74.42
46430;BME280;32131;53.454;-6.180;2023-03-14T11:09:23;100707.56;;;7.24;73.83
46430;BME280;32131;53.454;-6.180;2023-03-14T11:12:03;100706.53;;;7.50;72.94
46430;BME280;32131;53.454;-6.180;2023-03-14T11:14:39;100714.91;;;7.43;71.70
46430;BME280;32131;53.454;-6.180;2023-03-14T11:17:14;100709.06;;;7.48;72.06
46430;BME280;32131;53.454;-6.180;2023-03-14T11:19:55;100710.78;;;7.80;72.00
46430;BME280;32131;53.454;-6.180;2023-03-14T11:22:31;100704.41;;;8.00;70.52
46430;BME280;32131;53.454;-6.180;2023-03-14T11:25:13;100700.53;;;8.16;69.56
46430;BME280;32131;53.454;-6.180;2023-03-14T11:27:51;100699.47;;;8.43;69.23
46430;BME280;32131;53.454;-6.180;2023-03-14T11:30:30;100702.53;;;8.63;68.13
46430;BME280;32131;53.454;-6.180;2023-03-14T11:33:07;100687.88;;;8.61;66.09
46430;BME280;32131;53.454;-6.180;2023-03-14T11:35:43;100686.28;;;8.64;66.23
46430;BME280;32131;53.454;-6.180;2023-03-14T11:38:22;100696.38;;;8.57;65.81
46430;BME280;32131;53.454;-6.180;2023-03-14T11:40:54;100693.16;;;8.30;65.62
46430;BME280;32131;53.454;-6.180;2023-03-14T11:43:28;100693.56;;;8.12;66.27
46430;BME280;32131;53.454;-6.180;2023-03-14T11:46:03;100684.44;;;8.24;64.30
46430;BME280;32131;53.454;-6.180;2023-03-14T11:48:42;100685.28;;;8.59;64.25
46430;BME280;32131;53.454;-6.180;2023-03-14T11:51:22;100681.81;;;8.97;62.48
46430;BME280;32131;53.454;-6.180;2023-03-14T11:53:58;100683.41;;;9.33;61.32
46430;BME280;32131;53.454;-6.180;2023-03-14T11:56:33;100679.66;;;9.63;59.50
46430;BME280;32131;53.454;-6.180;2023-03-14T11:59:05;100670.50;;;9.81;58.86
46430;BME280;32131;53.454;-6.180;2023-03-14T12:01:45;100669.91;;;9.94;58.16
46430;BME280;32131;53.454;-6.180;2023-03-14T12:04:24;100681.50;;;10.21;56.89
46430;BME280;32131;53.454;-6.180;2023-03-14T12:07:03;100681.81;;;9.89;57.46
46430;BME280;32131;53.454;-6.180;2023-03-14T12:09:38;100688.28;;;9.64;57.98
46430;BME280;32131;53.454;-6.180;2023-03-14T12:12:12;100689.09;;;9.61;57.98
46430;BME280;32131;53.454;-6.180;2023-03-14T12:14:46;100681.19;;;9.52;57.81
46430;BME280;32131;53.454;-6.180;2023-03-14T12:17:35;100684.53;;;9.48;58.37
46430;BME280;32131;53.454;-6.180;2023-03-14T12:20:15;100684.88;;;9.22;58.53
46430;BME280;32131;53.454;-6.180;2023-03-14T12:22:48;100699.41;;;8.77;58.67
46430;BME280;32131;53.454;-6.180;2023-03-14T12:25:21;100711.72;;;8.54;59.47
46430;BME280;32131;53.454;-6.180;2023-03-14T12:31:38;100738.78;;;8.73;60.45
46430;BME280;32131;53.454;-6.180;2023-03-14T12:34:33;100739.66;;;8.73;61.05
46430;BME280;32131;53.454;-6.180;2023-03-14T12:37:10;100742.16;;;8.35;63.48
46430;BME280;32131;53.454;-6.180;2023-03-14T12:39:53;100756.75;;;8.01;65.25
46430;BME280;32131;53.454;-6.180;2023-03-14T12:42:41;100752.75;;;7.80;66.61
46430;BME280;32131;53.454;-6.180;2023-03-14T12:45:26;100744.88;;;7.74;67.36
46430;BME280;32131;53.454;-6.180;2023-03-14T12:48:08;100734.03;;;7.84;67.80
46430;BME280;32131;53.454;-6.180;2023-03-14T12:50:41;100742.19;;;8.03;68.08
46430;BME280;32131;53.454;-6.180;2023-03-14T12:56:38;100741.09;;;8.27;66.11
46430;BME280;32131;53.454;-6.180;2023-03-14T12:59:29;100736.78;;;8.26;63.61
46430;BME280;32131;53.454;-6.180;2023-03-14T13:02:20;100741.94;;;8.26;62.31
46430;BME280;32131;53.454;-6.180;2023-03-14T13:05:30;100749.56;;;8.23;60.06
46430;BME280;32131;53.454;-6.180;2023-03-14T13:08:04;100741.69;;;8.16;59.26
46430;BME280;32131;53.454;-6.180;2023-03-14T13:10:39;100744.16;;;8.12;59.49
46430;BME280;32131;53.454;-6.180;2023-03-14T13:13:17;100747.47;;;8.08;60.57
46430;BME280;32131;53.454;-6.180;2023-03-14T13:15:48;100754.59;;;7.84;60.70
46430;BME280;32131;53.454;-6.180;2023-03-14T13:18:26;100740.47;;;7.70;61.52
46430;BME280;32131;53.454;-6.180;2023-03-14T13:20:58;100738.66;;;7.66;62.10
46430;BME280;32131;53.454;-6.180;2023-03-14T13:23:29;100740.16;;;7.90;60.87
46430;BME280;32131;53.454;-6.180;2023-03-14T13:25:59;100732.94;;;7.76;61.81
46430;BME280;32131;53.454;-6.180;2023-03-14T13:28:30;100745.19;;;7.54;63.17
46430;BME280;32131;53.454;-6.180;2023-03-14T13:31:01;100727.47;;;7.64;61.87
46430;BME280;32131;53.454;-6.180;2023-03-14T13:33:30;100742.31;;;7.74;61.60
46430;BME280;32131;53.454;-6.180;2023-03-14T13:36:02;100749.59;;;7.91;60.71
46430;BME280;32131;53.454;-6.180;2023-03-14T13:38:32;100749.56;;;8.23;60.22
46430;BME280;32131;53.454;-6.180;2023-03-14T13:41:04;100747.41;;;8.40;59.26
46430;BME280;32131;53.454;-6.180;2023-03-14T13:43:36;100748.28;;;8.75;59.35
46430;BME280;32131;53.454;-6.180;2023-03-14T13:46:13;100751.28;;;8.94;58.22
46430;BME280;32131;53.454;-6.180;2023-03-14T13:48:47;100753.44;;;9.15;57.81
46430;BME280;32131;53.454;-6.180;2023-03-14T13:51:17;100753.25;;;9.06;57.35
46430;BME280;32131;53.454;-6.180;2023-03-14T13:53:48;100770.97;;;8.92;57.74
46430;BME280;32131;53.454;-6.180;2023-03-14T13:56:19;100750.91;;;8.78;57.38
46430;BME280;32131;53.454;-6.180;2023-03-14T13:58:49;100757.66;;;9.11;58.15
46430;BME280;32131;53.454;-6.180;2023-03-14T14:01:19;100758.84;;;9.26;58.10
46430;BME280;32131;53.454;-6.180;2023-03-14T14:03:48;100755.84;;;9.07;56.96
46430;BME280;32131;53.454;-6.180;2023-03-14T14:06:29;100764.69;;;8.79;57.43
46430;BME280;32131;53.454;-6.180;2023-03-14T14:09:00;100763.88;;;8.46;58.10
46430;BME280;32131;53.454;-6.180;2023-03-14T14:11:37;100768.44;;;8.23;59.40
46430;BME280;32131;53.454;-6.180;2023-03-14T14:14:21;100768.97;;;8.11;60.64
46430;BME280;32131;53.454;-6.180;2023-03-14T14:16:52;100768.75;;;8.02;60.76
46430;BME280;32131;53.454;-6.180;2023-03-14T14:19:22;100777.53;;;8.10;61.10
46430;BME280;32131;53.454;-6.180;2023-03-14T14:21:51;100777.88;;;8.24;59.89
46430;BME280;32131;53.454;-6.180;2023-03-14T14:24:21;100776.03;;;8.18;59.52
46430;BME280;32131;53.454;-6.180;2023-03-14T14:26:54;100775.97;;;8.15;59.45
46430;BME280;32131;53.454;-6.180;2023-03-14T14:29:27;100775.84;;;8.11;59.67
46430;BME280;32131;53.454;-6.180;2023-03-14T14:32:01;100775.28;;;8.23;59.75
46430;BME280;32131;53.454;-6.180;2023-03-14T14:34:38;100787.16;;;8.51;59.32
46430;BME280;32131;53.454;-6.180;2023-03-14T14:37:18;100793.28;;;8.56;57.57
46430;BME280;32131;53.454;-6.180;2023-03-14T14:39:48;100790.69;;;8.55;57.97
46430;BME280;32131;53.454;-6.180;2023-03-14T14:42:19;100798.13;;;8.44;58.87
46430;BME280;32131;53.454;-6.180;2023-03-14T14:44:51;100793.13;;;8.16;59.96
46430;BME280;32131;53.454;-6.180;2023-03-14T14:47:22;100800.53;;;8.04;61.71
46430;BME280;32131;53.454;-6.180;2023-03-14T14:49:53;100807.56;;;7.79;62.61
46430;BME280;32131;53.454;-6.180;2023-03-14T14:52:31;100828.28;;;7.85;63.26
46430;BME280;32131;53.454;-6.180;2023-03-14T14:55:02;100872.81;;;7.54;63.82
46430;BME280;32131;53.454;-6.180;2023-03-14T14:57:32;100871.72;;;7.18;65.18
46430;BME280;32131;53.454;-6.180;2023-03-14T15:00:08;100891.34;;;7.16;66.58
46430;BME280;32131;53.454;-6.180;2023-03-14T15:02:44;100902.78;;;6.99;67.64
46430;BME280;32131;53.454;-6.180;2023-03-14T15:05:15;100886.56;;;7.00;68.47
46430;BME280;32131;53.454;-6.180;2023-03-14T15:07:44;100888.00;;;6.91;70.00
46430;BME280;32131;53.454;-6.180;2023-03-14T15:10:15;100882.72;;;6.61;71.14
46430;BME280;32131;53.454;-6.180;2023-03-14T15:12:45;100878.66;;;6.42;72.48
46430;BME280;32131;53.454;-6.180;2023-03-14T15:15:17;100871.41;;;6.06;74.36
46430;BME280;32131;53.454;-6.180;2023-03-14T15:17:47;100863.25;;;5.71;75.25
46430;BME280;32131;53.454;-6.180;2023-03-14T15:20:18;100866.50;;;5.89;75.48
46430;BME280;32131;53.454;-6.180;2023-03-14T15:22:53;100874.78;;;6.05;75.21
46430;BME280;32131;53.454;-6.180;2023-03-14T15:25:22;100876.19;;;5.98;74.82
46430;BME280;32131;53.454;-6.180;2023-03-14T15:28:18;100882.72;;;5.65;74.69
46430;BME280;32131;53.454;-6.180;2023-03-14T15:30:50;100881.16;;;5.25;75.31
46430;BME280;32131;53.454;-6.180;2023-03-14T15:33:23;100880.19;;;5.00;76.33
46430;BME280;32131;53.454;-6.180;2023-03-14T15:35:52;100878.47;;;4.78;77.03
46430;BME280;32131;53.454;-6.180;2023-03-14T15:38:21;100897.59;;;4.88;77.37
46430;BME280;32131;53.454;-6.180;2023-03-14T15:40:51;100899.34;;;5.10;77.35
46430;BME280;32131;53.454;-6.180;2023-03-14T15:43:20;100893.50;;;5.35;76.03
46430;BME280;32131;53.454;-6.180;2023-03-14T15:46:09;100901.34;;;5.61;75.43
46430;BME280;32131;53.454;-6.180;2023-03-14T15:48:53;100904.13;;;5.90;74.63
46430;BME280;32131;53.454;-6.180;2023-03-14T15:51:25;100903.09;;;6.08;73.18
46430;BME280;32131;53.454;-6.180;2023-03-14T15:54:12;100904.50;;;6.24;71.56
46430;BME280;32131;53.454;-6.180;2023-03-14T15:56:40;100911.00;;;6.38;71.19
46430;BME280;32131;53.454;-6.180;2023-03-14T15:59:10;100918.16;;;6.47;70.45
46430;BME280;32131;53.454;-6.180;2023-03-14T16:01:40;100908.81;;;6.49;69.95
46430;BME280;32131;53.454;-6.180;2023-03-14T16:04:11;100906.91;;;6.43;70.92
46430;BME280;32131;53.454;-6.180;2023-03-14T16:06:40;100914.56;;;6.42;71.04
46430;BME280;32131;53.454;-6.180;2023-03-14T16:09:10;100912.53;;;6.57;70.91
46430;BME280;32131;53.454;-6.180;2023-03-14T16:11:57;100915.50;;;6.70;70.37
46430;BME280;32131;53.454;-6.180;2023-03-14T16:14:26;100918.19;;;6.73;70.15
46430;BME280;32131;53.454;-6.180;2023-03-14T16:16:59;100921.16;;;6.85;70.37
46430;BME280;32131;53.454;-6.180;2023-03-14T16:19:33;100924.75;;;6.90;70.15
46430;BME280;32131;53.454;-6.180;2023-03-14T16:22:02;100918.03;;;6.94;69.74
46430;BME280;32131;53.454;-6.180;2023-03-14T16:24:31;100923.25;;;6.97;69.47
46430;BME280;32131;53.454;-6.180;2023-03-14T16:26:59;100937.69;;;6.93;68.41
46430;BME280;32131;53.454;-6.180;2023-03-14T16:29:28;100943.75;;;6.96;68.15
46430;BME280;32131;53.454;-6.180;2023-03-14T16:43:56;100949.06;;;7.28;66.59
46430;BME280;32131;53.454;-6.180;2023-03-14T16:46:24;100958.63;;;7.32;66.60
46430;BME280;32131;53.454;-6.180;2023-03-14T16:48:54;100957.06;;;7.37;65.95
46430;BME280;32131;53.454;-6.180;2023-03-14T16:51:23;100959.88;;;7.45;65.71
46430;BME280;32131;53.454;-6.180;2023-03-14T16:53:52;100966.78;;;7.46;65.24
46430;BME280;32131;53.454;-6.180;2023-03-14T16:56:23;100966.94;;;7.50;65.45
46430;BME280;32131;53.454;-6.180;2023-03-14T16:58:51;100973.94;;;7.56;65.35
46430;BME280;32131;53.454;-6.180;2023-03-14T17:01:21;100971.28;;;7.53;65.32
46430;BME280;32131;53.454;-6.180;2023-03-14T17:03:50;100974.38;;;7.43;63.50
46430;BME280;32131;53.454;-6.180;2023-03-14T17:06:20;100972.25;;;7.29;63.85
46430;BME280;32131;53.454;-6.180;2023-03-14T17:08:50;100988.13;;;7.17;63.93
46430;BME280;32131;53.454;-6.180;2023-03-14T17:11:19;101002.19;;;7.03;64.08
46430;BME280;32131;53.454;-6.180;2023-03-14T17:14:12;100984.50;;;6.86;65.23
46430;BME280;32131;53.454;-6.180;2023-03-14T17:16:44;100991.63;;;6.69;65.82
46430;BME280;32131;53.454;-6.180;2023-03-14T17:19:12;100997.88;;;6.53;66.47
46430;BME280;32131;53.454;-6.180;2023-03-14T17:21:41;101008.59;;;6.41;67.12
46430;BME280;32131;53.454;-6.180;2023-03-14T17:24:09;101007.59;;;6.38;68.07
46430;BME280;32131;53.454;-6.180;2023-03-14T17:26:38;101017.09;;;6.40;68.31
46430;BME280;32131;53.454;-6.180;2023-03-14T17:29:07;101017.81;;;6.36;68.33
46430;BME280;32131;53.454;-6.180;2023-03-14T17:31:36;101016.06;;;6.35;68.46
46430;BME280;32131;53.454;-6.180;2023-03-14T17:34:08;101024.56;;;6.34;68.49
46430;BME280;32131;53.454;-6.180;2023-03-14T17:36:38;101031.22;;;6.29;68.71
46430;BME280;32131;53.454;-6.180;2023-03-14T17:39:06;101024.69;;;6.14;69.20
46430;BME280;32131;53.454;-6.180;2023-03-14T17:41:35;101029.41;;;6.04;69.64
46430;BME280;32131;53.454;-6.180;2023-03-14T17:44:06;101040.16;;;5.95;69.73
46430;BME280;32131;53.454;-6.180;2023-03-14T17:46:36;101042.41;;;5.87;70.45
46430;BME280;32131;53.454;-6.180;2023-03-14T17:49:06;101041.19;;;5.77;70.87
46430;BME280;32131;53.454;-6.180;2023-03-14T17:51:35;101041.84;;;5.73;70.73
46430;BME280;32131;53.454;-6.180;2023-03-14T17:54:03;101048.31;;;5.63;71.15
46430;BME280;32131;53.454;-6.180;2023-03-14T17:56:32;101051.44;;;5.56;71.36
46430;BME280;32131;53.454;-6.180;2023-03-14T17:59:00;101051.91;;;5.47;71.47
46430;BME280;32131;53.454;-6.180;2023-03-14T18:01:31;101056.66;;;5.38;72.13
46430;BME280;32131;53.454;-6.180;2023-03-14T18:04:00;101057.00;;;5.26;72.60
46430;BME280;32131;53.454;-6.180;2023-03-14T18:06:38;101061.75;;;5.17;72.99
46430;BME280;32131;53.454;-6.180;2023-03-14T18:09:10;101065.66;;;5.09;73.37
46430;BME280;32131;53.454;-6.180;2023-03-14T18:11:38;101066.09;;;4.98;73.63
46430;BME280;32131;53.454;-6.180;2023-03-14T18:14:07;101080.25;;;4.90;73.03
46430;BME280;32131;53.454;-6.180;2023-03-14T18:16:37;101090.91;;;4.81;73.14
46430;BME280;32131;53.454;-6.180;2023-03-14T18:19:06;101101.75;;;4.76;72.50
46430;BME280;32131;53.454;-6.180;2023-03-14T18:21:43;101101.34;;;4.66;71.52
46430;BME280;32131;53.454;-6.180;2023-03-14T18:24:14;101106.06;;;4.57;70.56
46430;BME280;32131;53.454;-6.180;2023-03-14T18:26:48;101110.88;;;4.51;70.40
46430;BME280;32131;53.454;-6.180;2023-03-14T18:29:16;101104.41;;;4.39;70.46
46430;BME280;32131;53.454;-6.180;2023-03-14T18:31:44;101110.09;;;4.34;70.54
46430;BME280;32131;53.454;-6.180;2023-03-14T18:34:13;101111.44;;;4.25;70.22
46430;BME280;32131;53.454;-6.180;2023-03-14T18:36:44;101122.22;;;4.20;69.66
46430;BME280;32131;53.454;-6.180;2023-03-14T18:39:12;101112.38;;;4.09;69.71
46430;BME280;32131;53.454;-6.180;2023-03-14T18:41:41;101112.88;;;4.02;69.78
46430;BME280;32131;53.454;-6.180;2023-03-14T18:44:09;101113.56;;;3.98;69.09
46430;BME280;32131;53.454;-6.180;2023-03-14T18:46:38;101124.41;;;3.94;69.88
46430;BME280;32131;53.454;-6.180;2023-03-14T18:49:07;101123.22;;;3.87;70.38
46430;BME280;32131;53.454;-6.180;2023-03-14T18:51:36;101129.06;;;3.85;70.76
46430;BME280;32131;53.454;-6.180;2023-03-14T18:54:06;101141.72;;;3.82;70.54
46430;BME280;32131;53.454;-6.180;2023-03-14T18:56:38;101130.22;;;3.73;71.28
46430;BME280;32131;53.454;-6.180;2023-03-14T18:59:08;101134.28;;;3.70;71.86
46430;BME280;32131;53.454;-6.180;2023-03-14T19:01:40;101136.63;;;3.65;71.85
46430;BME280;32131;53.454;-6.180;2023-03-14T19:04:09;101132.00;;;3.58;72.05
46430;BME280;32131;53.454;-6.180;2023-03-14T19:06:38;101141.13;;;3.53;72.24
46430;BME280;32131;53.454;-6.180;2023-03-14T19:09:10;101146.16;;;3.51;72.41
46430;BME280;32131;53.454;-6.180;2023-03-14T19:11:40;101143.25;;;3.45;72.53
46430;BME280;32131;53.454;-6.180;2023-03-14T19:14:09;101149.91;;;3.41;72.68
46430;BME280;32131;53.454;-6.180;2023-03-14T19:16:38;101161.72;;;3.39;73.20
46430;BME280;32131;53.454;-6.180;2023-03-14T19:19:06;101163.06;;;3.33;73.65
46430;BME280;32131;53.454;-6.180;2023-03-14T19:21:35;101166.19;;;3.27;73.60
46430;BME280;32131;53.454;-6.180;2023-03-14T19:24:05;101162.53;;;3.22;74.07
46430;BME280;32131;53.454;-6.180;2023-03-14T19:26:35;101171.78;;;3.20;74.38
46430;BME280;32131;53.454;-6.180;2023-03-14T19:29:05;101168.00;;;3.13;74.66
46430;BME280;32131;53.454;-6.180;2023-03-14T19:31:35;101175.66;;;3.13;75.09
46430;BME280;32131;53.454;-6.180;2023-03-14T19:34:03;101176.22;;;3.07;75.16
46430;BME280;32131;53.454;-6.180;2023-03-14T19:36:34;101180.44;;;3.07;75.34
46430;BME280;32131;53.454;-6.180;2023-03-14T19:39:04;101188.91;;;3.06;75.50
46430;BME280;32131;53.454;-6.180;2023-03-14T19:41:35;101180.94;;;2.99;75.88
46430;BME280;32131;53.454;-6.180;2023-03-14T19:44:04;101187.69;;;2.99;75.92
46430;BME280;32131;53.454;-6.180;2023-03-14T19:46:33;101185.00;;;2.96;76.23
46430;BME280;32131;53.454;-6.180;2023-03-14T19:49:02;101190.88;;;2.95;76.23
46430;BME280;32131;53.454;-6.180;2023-03-14T19:51:31;101185.47;;;2.89;76.14
46430;BME280;32131;53.454;-6.180;2023-03-14T19:54:01;101185.28;;;2.86;76.50
46430;BME280;32131;53.454;-6.180;2023-03-14T19:56:31;101192.22;;;2.88;76.54
46430;BME280;32131;53.454;-6.180;2023-03-14T20:02:15;101205.50;;;2.82;76.75
46430;BME280;32131;53.454;-6.180;2023-03-14T20:05:56;101215.72;;;2.82;77.00
46430;BME280;32131;53.454;-6.180;2023-03-14T20:09:34;101230.69;;;2.76;76.80
46430;BME280;32131;53.454;-6.180;2023-03-14T20:43:47;101270.63;;;2.31;78.89
46430;BME280;32131;53.454;-6.180;2023-03-14T21:16:14;101277.03;;;1.66;82.02
46430;BME280;32131;53.454;-6.180;2023-03-14T21:26:11;101267.00;;;1.54;81.93
46430;BME280;32131;53.454;-6.180;2023-03-14T21:29:34;101273.59;;;1.50;82.12
46430;BME280;32131;53.454;-6.180;2023-03-14T22:10:41;101330.59;;;0.99;85.24
46430;BME280;32131;53.454;-6.180;2023-03-14T22:57:55;101369.72;;;0.74;87.29
46430;BME280;32131;53.454;-6.180;2023-03-14T23:04:12;101375.69;;;0.74;87.55
46430;BME280;32131;53.454;-6.180;2023-03-14T23:08:27;101373.72;;;0.70;87.88
46430;BME280;32131;53.454;-6.180;2023-03-14T23:10:47;101363.25;;;0.66;87.96
46430;BME280;32131;53.454;-6.180;2023-03-14T23:13:38;101360.53;;;0.62;88.18
46430;BME280;32131;53.454;-6.180;2023-03-14T23:19:25;101351.69;;;0.57;88.30
46430;BME280;32131;53.454;-6.180;2023-03-14T23:20:12;101349.06;;;0.56;88.42
46430;BME280;32131;53.454;-6.180;2023-03-14T23:29:24;101337.00;;;0.40;88.66
46430;BME280;32131;53.454;-6.180;2023-03-14T23:31:55;101326.81;;;0.40;89.24
46430;BME280;32131;53.454;-6.180;2023-03-14T23:34:26;101336.91;;;0.38;89.00
46430;BME280;32131;53.454;-6.180;2023-03-14T23:36:57;101346.97;;;0.37;89.49
46430;BME280;32131;53.454;-6.180;2023-03-14T23:39:40;101352.72;;;0.34;89.41
46430;BME280;32131;53.454;-6.180;2023-03-14T23:42:11;101341.47;;;0.30;89.47
46430;BME280;32131;53.454;-6.180;2023-03-14T23:44:54;101339.28;;;0.23;89.76
46430;BME280;32131;53.454;-6.180;2023-03-14T23:47:25;101332.25;;;0.19;89.91
46430;BME280;32131;53.454;-6.180;2023-03-14T23:49:57;101344.06;;;0.19;89.87
46430;BME280;32131;53.454;-6.180;2023-03-14T23:52:34;101355.13;;;0.19;90.13
46430;BME280;32131;53.454;-6.180;2023-03-14T23:55:04;101349.59;;;0.13;90.11
46430;BME280;32131;53.454;-6.180;2023-03-14T23:57:39;101350.09;;;0.07;90.28
